createdAt,value
2018-04-10T00:01:02.245Z,99651.77
2018-04-10T00:03:32.132Z,99652.88
2018-04-10T00:06:00.705Z,99657.23
2018-04-10T00:08:29.510Z,99655.11
2018-04-10T00:10:57.934Z,99658.27
2018-04-10T00:13:26.333Z,99655.72
2018-04-10T00:15:55.464Z,99663.11
2018-04-10T00:18:23.859Z,99662.34
2018-04-10T00:20:52.388Z,99657.89
2018-04-10T00:23:21.557Z,99659.73
2018-04-10T00:25:50.021Z,99662.59
2018-04-10T00:28:19.257Z,99659.45
2018-04-10T00:30:48.407Z,99653.73
2018-04-10T00:33:16.803Z,99661.52
2018-04-10T00:35:45.184Z,99658.86
2018-04-10T00:38:13.583Z,99665.33
2018-04-10T00:40:41.965Z,99665.24
2018-04-10T00:43:10.349Z,99664.26
2018-04-10T00:45:38.915Z,99669.58
2018-04-10T00:48:07.292Z,99667.73
2018-04-10T00:50:35.682Z,99671.06
2018-04-10T00:53:21.989Z,99664.52
2018-04-10T00:55:50.406Z,99669.14
2018-04-10T00:58:19.252Z,99664.17
2018-04-10T01:00:47.629Z,99664.20
2018-04-10T01:03:16.043Z,99667.15
2018-04-10T01:05:44.442Z,99661.84
2018-04-10T01:08:13.645Z,99656.06
2018-04-10T01:10:42.023Z,99663.41
2018-04-10T01:13:11.963Z,99662.28
2018-04-10T01:15:41.113Z,99656.34
2018-04-10T01:18:09.554Z,99661.03
2018-04-10T01:20:38.698Z,99662.22
2018-04-10T01:23:07.256Z,99662.97
2018-04-10T01:25:35.628Z,99653.58
2018-04-10T01:28:04.792Z,99656.55
2018-04-10T01:30:33.169Z,99665.03
2018-04-10T01:33:01.576Z,99666.02
2018-04-10T01:35:30.006Z,99668.45
2018-04-10T01:37:58.412Z,99665.29
2018-04-10T01:40:26.814Z,99663.70
2018-04-10T01:42:55.971Z,99667.45
2018-04-10T01:45:24.430Z,99661.12
2018-04-10T01:47:53.593Z,99655.34
2018-04-10T01:50:21.990Z,99659.35
2018-04-10T01:52:50.384Z,99658.03
2018-04-10T01:55:19.540Z,99651.86
2018-04-10T01:57:47.941Z,99655.34
2018-04-10T02:00:16.312Z,99651.86
2018-04-10T02:02:44.724Z,99649.41
2018-04-10T02:05:13.104Z,99649.51
2018-04-10T02:07:41.512Z,99648.30
2018-04-10T02:10:10.669Z,99648.72
2018-04-10T02:12:39.041Z,99658.64
2018-04-10T02:15:07.432Z,99660.58
2018-04-10T02:17:35.822Z,99665.59
2018-04-10T02:20:04.219Z,99663.45
2018-04-10T02:22:32.593Z,99663.55
2018-04-10T02:25:00.965Z,99665.98
2018-04-10T02:27:29.354Z,99669.33
2018-04-10T02:29:57.725Z,99678.27
2018-04-10T02:32:26.117Z,99680.93
2018-04-10T02:34:54.520Z,99675.59
2018-04-10T02:37:22.898Z,99674.72
2018-04-10T02:39:51.304Z,99667.98
2018-04-10T02:42:20.488Z,99663.34
2018-04-10T02:44:50.377Z,99655.94
2018-04-10T02:47:18.761Z,99656.39
2018-04-10T02:49:47.154Z,99649.56
2018-04-10T02:52:15.548Z,99654.66
2018-04-10T02:54:43.920Z,99652.17
2018-04-10T02:57:12.424Z,99660.88
2018-04-10T02:59:40.821Z,99659.42
2018-04-10T03:02:09.216Z,99660.47
2018-04-10T03:04:38.400Z,99658.16
2018-04-10T03:07:06.789Z,99645.75
2018-04-10T03:09:35.209Z,99644.98
2018-04-10T03:12:03.605Z,99643.83
2018-04-10T03:14:32.014Z,99649.10
2018-04-10T03:17:00.389Z,99658.14
2018-04-10T03:19:28.948Z,99655.52
2018-04-10T03:21:57.381Z,99665.86
2018-04-10T03:24:25.809Z,99668.63
2018-04-10T03:26:54.190Z,99670.28
2018-04-10T03:29:22.584Z,99674.70
2018-04-10T03:31:50.982Z,99672.19
2018-04-10T03:34:19.393Z,99667.53
2018-04-10T03:36:47.764Z,99667.79
2018-04-10T03:39:16.158Z,99674.27
2018-04-10T03:41:44.633Z,99668.16
2018-04-10T03:44:13.112Z,99672.09
2018-04-10T03:46:41.520Z,99671.22
2018-04-10T03:49:09.907Z,99677.37
2018-04-10T03:51:38.305Z,99683.66
2018-04-10T03:54:07.469Z,99694.53
2018-04-10T03:56:35.888Z,99689.34
2018-04-10T03:59:04.249Z,99690.02
2018-04-10T04:01:32.669Z,99689.76
2018-04-10T04:04:01.080Z,99683.92
2018-04-10T04:06:29.464Z,99679.38
2018-04-10T04:08:57.857Z,99677.40
2018-04-10T04:11:26.237Z,99675.80
2018-04-10T04:13:54.613Z,99668.69
2018-04-10T04:16:40.708Z,99672.95
2018-04-10T04:19:27.113Z,99676.34
2018-04-10T04:22:20.199Z,99677.39
2018-04-10T04:24:49.357Z,99676.13
2018-04-10T04:27:17.769Z,99681.84
2018-04-10T04:29:46.179Z,99680.63
2018-04-10T04:32:15.504Z,99679.48
2018-04-10T04:34:43.881Z,99678.31
2018-04-10T04:37:12.299Z,99682.38
2018-04-10T04:39:40.709Z,99680.30
2018-04-10T04:42:09.089Z,99680.02
2018-04-10T04:44:37.477Z,99683.39
2018-04-10T04:47:05.906Z,99681.85
2018-04-10T04:49:34.394Z,99676.56
2018-04-10T04:52:02.805Z,99673.17
2018-04-10T04:54:31.321Z,99673.65
2018-04-10T04:57:00.485Z,99669.78
2018-04-10T04:59:28.873Z,99670.80
2018-04-10T05:01:57.269Z,99681.72
2018-04-10T05:04:25.689Z,99680.48
2018-04-10T05:06:54.835Z,99688.24
2018-04-10T05:09:23.257Z,99684.73
2018-04-10T05:11:52.432Z,99690.75
2018-04-10T05:14:20.855Z,99685.18
2018-04-10T05:16:50.036Z,99689.45
2018-04-10T05:19:19.223Z,99695.05
2018-04-10T05:21:47.624Z,99698.07
2018-04-10T05:24:16.774Z,99700.74
2018-04-10T05:26:45.265Z,99699.00
2018-04-10T05:29:13.654Z,99702.35
2018-04-10T05:31:42.046Z,99701.87
2018-04-10T05:34:10.472Z,99709.74
2018-04-10T05:36:39.625Z,99714.90
2018-04-10T05:39:08.040Z,99710.48
2018-04-10T05:41:36.429Z,99717.34
2018-04-10T05:44:05.602Z,99713.39
2018-04-10T05:46:34.012Z,99719.34
2018-04-10T05:49:03.195Z,99710.16
2018-04-10T05:51:31.613Z,99714.59
2018-04-10T05:54:00.770Z,99716.07
2018-04-10T05:56:29.159Z,99723.33
2018-04-10T05:58:57.606Z,99735.47
2018-04-10T06:01:26.045Z,99738.48
2018-04-10T06:03:54.427Z,99741.21
2018-04-10T06:06:22.809Z,99748.36
2018-04-10T06:08:51.193Z,99738.94
2018-04-10T06:11:19.577Z,99752.08
2018-04-10T06:13:48.728Z,99751.38
2018-04-10T06:16:17.124Z,99756.80
2018-04-10T06:18:45.511Z,99755.41
2018-04-10T06:21:13.891Z,99759.39
2018-04-10T06:23:42.281Z,99758.60
2018-04-10T06:26:10.717Z,99760.32
2018-04-10T06:28:39.894Z,99765.50
2018-04-10T06:31:08.448Z,99765.97
2018-04-10T06:33:36.957Z,99778.41
2018-04-10T06:36:05.381Z,99775.34
2018-04-10T06:38:35.481Z,99772.44
2018-04-10T06:41:04.622Z,99776.09
2018-04-10T06:43:33.018Z,99775.28
2018-04-10T06:46:01.505Z,99774.94
2018-04-10T06:48:29.905Z,99782.84
2018-04-10T06:50:58.327Z,99781.18
2018-04-10T06:53:27.540Z,99787.44
2018-04-10T06:55:55.904Z,99786.31
2018-04-10T06:58:25.054Z,99791.55
2018-04-10T07:00:53.449Z,99792.81
2018-04-10T07:03:21.911Z,99798.94
2018-04-10T07:05:50.299Z,99803.39
2018-04-10T07:08:18.777Z,99803.27
2018-04-10T07:10:47.173Z,99810.66
2018-04-10T07:13:15.589Z,99804.19
2018-04-10T07:15:44.108Z,99808.93
2018-04-10T07:18:13.291Z,99809.70
2018-04-10T07:20:42.527Z,99808.33
2018-04-10T07:23:10.901Z,99808.05
2018-04-10T07:25:39.369Z,99814.84
2018-04-10T07:28:08.515Z,99807.20
2018-04-10T07:30:36.921Z,99805.80
2018-04-10T07:33:05.319Z,99816.84
2018-04-10T07:35:33.724Z,99812.31
2018-04-10T07:38:02.882Z,99820.39
2018-04-10T07:40:31.293Z,99820.02
2018-04-10T07:42:59.674Z,99822.73
2018-04-10T07:45:28.068Z,99823.85
2018-04-10T07:47:57.398Z,99827.13
2018-04-10T07:50:25.794Z,99822.56
2018-04-10T07:52:54.183Z,99818.77
2018-04-10T07:55:22.609Z,99821.67
2018-04-10T07:57:51.057Z,99828.52
2018-04-10T08:00:19.642Z,99819.81
2018-04-10T08:02:48.026Z,99814.53
2018-04-10T08:05:16.458Z,99811.33
2018-04-10T08:07:45.633Z,99812.34
2018-04-10T08:10:14.008Z,99821.95
2018-04-10T08:12:43.197Z,99826.21
2018-04-10T08:15:11.586Z,99828.75
2018-04-10T08:17:40.004Z,99829.08
2018-04-10T08:20:09.885Z,99845.96
2018-04-10T08:22:38.298Z,99848.92
2018-04-10T08:25:06.701Z,99841.42
2018-04-10T08:27:35.866Z,99844.55
2018-04-10T08:30:04.317Z,99846.45
2018-04-10T08:32:32.773Z,99847.23
2018-04-10T08:35:01.920Z,99847.30
2018-04-10T08:37:30.298Z,99847.73
2018-04-10T08:39:58.694Z,99846.09
2018-04-10T08:42:27.073Z,99853.47
2018-04-10T08:44:55.465Z,99856.58
2018-04-10T08:47:23.938Z,99861.53
2018-04-10T08:49:52.303Z,99857.78
2018-04-10T08:52:20.802Z,99856.45
2018-04-10T08:54:49.173Z,99856.25
2018-04-10T08:57:17.666Z,99857.40
2018-04-10T08:59:46.042Z,99854.48
2018-04-10T09:02:14.466Z,99859.45
2018-04-10T09:04:42.844Z,99855.76
2018-04-10T09:07:11.293Z,99859.06
2018-04-10T09:09:39.721Z,99858.13
2018-04-10T09:12:08.109Z,99852.63
2018-04-10T09:14:36.533Z,99852.27
2018-04-10T09:17:04.911Z,99849.63
2018-04-10T09:19:33.284Z,99848.16
2018-04-10T09:22:02.434Z,99842.85
2018-04-10T09:24:30.818Z,99844.11
2018-04-10T09:26:59.214Z,99850.61
2018-04-10T09:29:27.589Z,99846.81
2018-04-10T09:31:56.009Z,99849.81
2018-04-10T09:34:24.391Z,99856.87
2018-04-10T09:36:53.523Z,99857.33
2018-04-10T09:39:21.938Z,99854.48
2018-04-10T09:41:50.354Z,99852.12
2018-04-10T09:44:19.525Z,99855.94
2018-04-10T09:46:47.934Z,99853.22
2018-04-10T09:49:16.325Z,99853.12
2018-04-10T09:51:45.482Z,99849.41
2018-04-10T09:54:13.886Z,99851.59
2018-04-10T09:56:42.250Z,99854.66
2018-04-10T09:59:10.649Z,99854.98
2018-04-10T10:01:39.046Z,99850.55
2018-04-10T10:04:07.412Z,99847.02
2018-04-10T10:06:35.811Z,99851.32
2018-04-10T10:09:04.194Z,99851.16
2018-04-10T10:11:33.372Z,99852.38
2018-04-10T10:14:01.743Z,99851.91
2018-04-10T10:16:30.129Z,99856.78
2018-04-10T10:18:58.509Z,99856.40
2018-04-10T10:21:26.890Z,99861.70
2018-04-10T10:23:55.315Z,99859.84
2018-04-10T10:26:23.714Z,99859.34
2018-04-10T10:28:52.869Z,99863.70
2018-04-10T10:31:21.236Z,99860.28
2018-04-10T10:33:49.609Z,99857.02
2018-04-10T10:36:17.942Z,99857.22
2018-04-10T10:38:46.344Z,99863.55
2018-04-10T10:41:15.503Z,99869.09
2018-04-10T10:43:43.899Z,99865.33
2018-04-10T10:46:12.285Z,99854.59
2018-04-10T10:48:41.424Z,99862.27
2018-04-10T10:51:09.930Z,99863.01
2018-04-10T10:53:38.301Z,99859.21
2018-04-10T10:56:06.710Z,99871.34
2018-04-10T10:58:35.068Z,99865.16
2018-04-10T11:01:03.471Z,99874.31
2018-04-10T11:03:32.564Z,99869.31
2018-04-10T11:06:00.958Z,99865.55
2018-04-10T11:08:29.371Z,99857.94
2018-04-10T11:10:57.754Z,99859.45
2018-04-10T11:13:26.128Z,99856.10
2018-04-10T11:15:54.502Z,99858.60
2018-04-10T11:18:22.890Z,99852.28
2018-04-10T11:20:51.285Z,99846.64
2018-04-10T11:23:19.657Z,99842.13
2018-04-10T11:25:48.090Z,99847.76
2018-04-10T11:28:16.485Z,99839.30
2018-04-10T11:30:44.897Z,99839.86
2018-04-10T11:33:13.266Z,99835.35
2018-04-10T11:35:41.694Z,99838.80
2018-04-10T11:38:10.076Z,99842.58
2018-04-10T11:40:38.502Z,99847.67
2018-04-10T11:43:06.916Z,99842.66
2018-04-10T11:45:35.289Z,99838.80
2018-04-10T11:48:04.589Z,99833.28
2018-04-10T11:50:32.992Z,99825.28
2018-04-10T11:53:01.389Z,99820.59
2018-04-10T11:55:29.793Z,99819.38
2018-04-10T11:57:58.925Z,99808.31
2018-04-10T12:00:27.297Z,99806.94
2018-04-10T12:02:55.683Z,99801.60
2018-04-10T12:05:24.048Z,99797.23
2018-04-10T12:07:53.218Z,99795.84
2018-04-10T12:10:21.781Z,99789.30
2018-04-10T12:12:50.346Z,99794.08
2018-04-10T12:15:18.766Z,99795.66
2018-04-10T12:17:47.155Z,99796.84
2018-04-10T12:20:15.705Z,99794.63
2018-04-10T12:22:44.106Z,99803.72
2018-04-10T12:25:12.491Z,99802.34
2018-04-10T12:27:40.881Z,99800.19
2018-04-10T12:30:09.272Z,99802.45
2018-04-10T12:32:37.669Z,99801.72
2018-04-10T12:35:06.081Z,99796.12
2018-04-10T12:37:35.246Z,99803.35
2018-04-10T12:40:03.631Z,99807.45
2018-04-10T12:42:31.998Z,99796.66
2018-04-10T12:45:00.383Z,99796.26
2018-04-10T12:47:28.765Z,99790.20
2018-04-10T12:49:57.161Z,99787.97
2018-04-10T12:52:25.548Z,99791.14
2018-04-10T12:54:53.952Z,99789.55
2018-04-10T12:57:22.313Z,99786.87
2018-04-10T12:59:50.682Z,99786.88
2018-04-10T13:02:19.066Z,99781.86
2018-04-10T13:04:47.460Z,99778.89
2018-04-10T13:07:15.908Z,99782.08
2018-04-10T13:09:44.388Z,99779.64
2018-04-10T13:12:12.781Z,99778.70
2018-04-10T13:14:41.181Z,99772.20
2018-04-10T13:17:09.583Z,99769.94
2018-04-10T13:19:37.956Z,99761.11
2018-04-10T13:22:06.357Z,99764.75
2018-04-10T13:24:34.780Z,99763.92
2018-04-10T13:27:03.202Z,99753.66
2018-04-10T13:29:31.625Z,99751.72
2018-04-10T13:32:00.805Z,99751.13
2018-04-10T13:34:29.235Z,99741.30
2018-04-10T13:36:57.615Z,99739.66
2018-04-10T13:39:26.003Z,99732.91
2018-04-10T13:41:54.404Z,99742.45
2018-04-10T13:44:22.837Z,99740.19
2018-04-10T13:46:52.016Z,99737.43
2018-04-10T13:49:20.443Z,99731.82
2018-04-10T13:51:49.621Z,99729.44
2018-04-10T13:54:18.087Z,99733.16
2018-04-10T13:56:47.308Z,99727.53
2018-04-10T13:59:16.558Z,99731.14
2018-04-10T14:01:44.938Z,99728.88
2018-04-10T14:04:13.369Z,99725.44
2018-04-10T14:06:41.748Z,99723.55
2018-04-10T14:09:10.130Z,99718.09
2018-04-10T14:11:38.538Z,99717.08
2018-04-10T14:14:07.757Z,99709.19
2018-04-10T14:16:36.909Z,99702.51
2018-04-10T14:19:05.367Z,99703.28
2018-04-10T14:21:33.749Z,99708.03
2018-04-10T14:24:02.155Z,99711.42
2018-04-10T14:26:31.343Z,99707.18
2018-04-10T14:28:59.751Z,99707.56
2018-04-10T14:31:28.238Z,99709.64
2018-04-10T14:33:58.138Z,99709.52
2018-04-10T14:36:26.565Z,99699.02
2018-04-10T14:38:55.705Z,99698.88
2018-04-10T14:41:24.097Z,99705.06
2018-04-10T14:43:52.482Z,99699.99
2018-04-10T14:46:20.870Z,99700.62
2018-04-10T14:48:49.237Z,99695.02
2018-04-10T14:51:17.625Z,99693.70
2018-04-10T14:53:46.026Z,99688.94
2018-04-10T14:56:14.429Z,99689.39
2018-04-10T14:58:42.812Z,99684.55
2018-04-10T15:01:11.210Z,99678.02
2018-04-10T15:03:39.637Z,99677.72
2018-04-10T15:06:08.053Z,99678.74
2018-04-10T15:08:37.218Z,99679.02
2018-04-10T15:11:05.593Z,99683.69
2018-04-10T15:13:33.997Z,99685.74
2018-04-10T15:16:02.362Z,99685.52
2018-04-10T15:18:30.757Z,99677.48
2018-04-10T15:20:59.141Z,99684.60
2018-04-10T15:23:27.506Z,99679.83
2018-04-10T15:25:56.817Z,99673.63
2018-04-10T15:28:25.203Z,99677.70
2018-04-10T15:30:53.730Z,99673.67
2018-04-10T15:33:22.126Z,99672.81
2018-04-10T15:35:50.546Z,99664.67
2018-04-10T15:38:18.965Z,99668.06
2018-04-10T15:40:47.388Z,99661.75
2018-04-10T15:43:15.809Z,99659.86
2018-04-10T15:45:44.244Z,99654.28
2018-04-10T15:48:12.631Z,99660.44
2018-04-10T15:50:41.038Z,99660.70
2018-04-10T15:53:10.183Z,99650.08
2018-04-10T15:55:38.575Z,99650.45
2018-04-10T15:58:06.965Z,99651.30
2018-04-10T16:00:35.337Z,99653.55
2018-04-10T16:03:03.804Z,99650.70
2018-04-10T16:05:32.201Z,99647.77
2018-04-10T16:08:00.608Z,99652.39
2018-04-10T16:10:28.989Z,99654.13
2018-04-10T16:12:57.396Z,99651.42
2018-04-10T16:15:26.693Z,99651.16
2018-04-10T16:17:55.858Z,99646.05
2018-04-10T16:20:24.232Z,99647.72
2018-04-10T16:22:52.670Z,99651.42
2018-04-10T16:25:21.817Z,99646.98
2018-04-10T16:27:50.197Z,99649.75
2018-04-10T16:30:18.712Z,99649.94
2018-04-10T16:32:47.175Z,99645.85
2018-04-10T16:35:15.548Z,99645.34
2018-04-10T16:37:44.477Z,99646.44
2018-04-10T16:40:12.895Z,99648.06
2018-04-10T16:42:41.262Z,99657.85
2018-04-10T16:45:09.641Z,99662.06
2018-04-10T16:47:38.072Z,99665.72
2018-04-10T16:50:06.515Z,99659.82
2018-04-10T16:52:35.884Z,99663.73
2018-04-10T16:55:04.601Z,99655.47
2018-04-10T16:57:33.064Z,99664.67
2018-04-10T17:00:01.524Z,99671.79
2018-04-10T17:02:29.945Z,99675.22
2018-04-10T17:04:58.325Z,99671.52
2018-04-10T17:07:26.722Z,99676.70
2018-04-10T17:09:55.130Z,99674.48
2018-04-10T17:12:24.302Z,99675.34
2018-04-10T17:14:52.686Z,99669.14
2018-04-10T17:17:21.094Z,99668.60
2018-04-10T17:19:50.273Z,99670.06
2018-04-10T17:22:18.673Z,99671.59
2018-04-10T17:24:47.104Z,99675.87
2018-04-10T17:27:15.528Z,99677.60
2018-04-10T17:29:44.697Z,99685.00
2018-04-10T17:32:13.083Z,99700.12
2018-04-10T17:34:43.128Z,99709.60
2018-04-10T17:37:11.553Z,99728.13
2018-04-10T17:39:39.960Z,99741.52
2018-04-10T17:42:09.320Z,99764.97
2018-04-10T17:44:38.479Z,99765.30
2018-04-10T17:47:06.909Z,99769.04
2018-04-10T17:49:36.072Z,99776.30
2018-04-10T17:52:04.477Z,99773.99
2018-04-10T17:54:32.881Z,99761.05
2018-04-10T17:57:02.972Z,99751.44
2018-04-10T17:59:32.174Z,99746.03
2018-04-10T18:02:00.609Z,99738.37
2018-04-10T18:04:29.002Z,99731.26
2018-04-10T18:06:57.449Z,99735.10
2018-04-10T18:09:26.629Z,99730.83
2018-04-10T18:11:55.042Z,99733.22
2018-04-10T18:14:24.251Z,99735.59
2018-04-10T18:16:52.645Z,99735.18
2018-04-10T18:19:21.086Z,99726.02
2018-04-10T18:21:49.477Z,99722.78
2018-04-10T18:24:18.683Z,99727.13
2018-04-10T18:26:47.853Z,99736.77
2018-04-10T18:29:16.839Z,99738.40
2018-04-10T18:31:45.310Z,99740.46
2018-04-10T18:34:13.790Z,99737.99
2018-04-10T18:36:42.340Z,99743.05
2018-04-10T18:39:11.996Z,99763.88
2018-04-10T18:41:41.410Z,99770.42
2018-04-10T18:44:11.452Z,99777.19
2018-04-10T18:46:40.517Z,99793.41
2018-04-10T18:49:08.971Z,99790.20
2018-04-10T18:51:38.195Z,99794.42
2018-04-10T18:54:06.657Z,99803.13
2018-04-10T18:56:37.137Z,99818.69
2018-04-10T18:59:05.588Z,99835.88
2018-04-10T19:01:36.855Z,99846.95
2018-04-10T19:04:05.259Z,99859.69
2018-04-10T19:06:34.664Z,99864.13
2018-04-10T19:09:03.067Z,99871.23
2018-04-10T19:11:31.608Z,99872.18
2018-04-10T19:14:00.070Z,99890.44
2018-04-10T19:16:29.573Z,99902.09
2018-04-10T19:18:59.737Z,99913.27
2018-04-10T19:21:28.130Z,99927.84
2018-04-10T19:23:56.608Z,99933.09
2018-04-10T19:26:25.022Z,99942.30
2018-04-10T19:28:54.287Z,99953.60
2018-04-10T19:31:25.530Z,99962.33
2018-04-10T19:33:53.929Z,99964.05
2018-04-10T19:36:22.367Z,99968.05
2018-04-10T19:38:51.579Z,99963.41
2018-04-10T19:41:20.015Z,99964.25
2018-04-10T19:43:48.422Z,99967.16
2018-04-10T19:46:18.003Z,99970.66
2018-04-10T19:48:46.466Z,99981.12
2018-04-10T19:51:14.863Z,99982.89
2018-04-10T19:53:44.016Z,99983.75
2018-04-10T19:56:13.271Z,99987.24
2018-04-10T19:58:41.645Z,99982.10
2018-04-10T20:01:10.068Z,99982.14
2018-04-10T20:03:39.233Z,99986.95
2018-04-10T20:06:07.675Z,99988.58
2018-04-10T20:08:37.019Z,99981.64
2018-04-10T20:11:05.701Z,99977.67
2018-04-10T20:13:34.472Z,99969.30
2018-04-10T20:16:02.877Z,99953.58
2018-04-10T20:18:31.351Z,99953.59
2018-04-10T20:20:59.770Z,99950.21
2018-04-10T20:23:28.193Z,99945.93
2018-04-10T20:25:57.362Z,99947.72
2018-04-10T20:28:25.797Z,99952.53
2018-04-10T20:30:54.254Z,99952.03
2018-04-10T20:33:24.315Z,99954.75
2018-04-10T20:35:52.743Z,99948.69
2018-04-10T20:38:22.235Z,99946.41
2018-04-10T20:40:50.643Z,99934.77
2018-04-10T20:43:20.863Z,99934.00
2018-04-10T20:45:50.056Z,99930.42
2018-04-10T20:48:18.899Z,99928.80
2018-04-10T20:50:47.357Z,99928.79
2018-04-10T20:53:16.574Z,99928.84
2018-04-10T20:55:46.111Z,99928.02
2018-04-10T20:58:14.664Z,99931.50
2018-04-10T21:00:43.049Z,99931.06
2018-04-10T21:03:13.973Z,99932.82
2018-04-10T21:05:43.162Z,99940.05
2018-04-10T21:08:11.561Z,99940.13
2018-04-10T21:10:40.776Z,99933.59
2018-04-10T21:13:09.179Z,99936.95
2018-04-10T21:15:37.581Z,99932.23
2018-04-10T21:18:06.009Z,99945.20
2018-04-10T21:20:35.202Z,99939.87
2018-04-10T21:23:03.687Z,99941.78
2018-04-10T21:25:32.194Z,99950.16
2018-04-10T21:28:01.349Z,99958.02
2018-04-10T21:30:30.501Z,99955.02
2018-04-10T21:32:59.663Z,99960.23
2018-04-10T21:35:28.065Z,99961.13
2018-04-10T21:37:56.456Z,99960.69
2018-04-10T21:40:25.618Z,99947.95
2018-04-10T21:42:59.529Z,99943.03
2018-04-10T21:45:28.695Z,99932.95
2018-04-10T21:47:57.088Z,99934.84
2018-04-10T21:50:25.477Z,99949.28
2018-04-10T21:52:53.863Z,99963.67
2018-04-10T21:55:22.255Z,99959.67
2018-04-10T21:57:50.689Z,99983.62
2018-04-10T22:00:19.855Z,99994.90
2018-04-10T22:02:48.263Z,99993.54
2018-04-10T22:05:17.427Z,100002.00
2018-04-10T22:07:45.889Z,100018.11
2018-04-10T22:10:14.277Z,100029.86
2018-04-10T22:12:42.689Z,100027.37
2018-04-10T22:15:11.092Z,100021.73
2018-04-10T22:17:39.474Z,100012.22
2018-04-10T22:20:07.913Z,100000.53
2018-04-10T22:22:36.342Z,99973.22
2018-04-10T22:25:04.755Z,99945.75
2018-04-10T22:27:33.165Z,99916.75
2018-04-10T22:30:01.566Z,99907.67
2018-04-10T22:32:31.985Z,99904.29
2018-04-10T22:35:00.366Z,99933.02
2018-04-10T22:37:28.805Z,99942.98
2018-04-10T22:39:57.206Z,99954.69
2018-04-10T22:42:25.614Z,99967.72
2018-04-10T22:44:54.099Z,99961.22
2018-04-10T22:47:22.491Z,99956.45
2018-04-10T22:49:50.891Z,99961.23
2018-04-10T22:52:20.064Z,99962.09
2018-04-10T22:54:48.464Z,99976.39
2018-04-10T22:57:16.858Z,99981.17
2018-04-10T22:59:46.041Z,99978.13
2018-04-10T23:02:14.431Z,99988.52
2018-04-10T23:04:42.858Z,99992.44
2018-04-10T23:07:11.270Z,99994.58
2018-04-10T23:09:39.757Z,99985.08
2018-04-10T23:12:08.150Z,99981.59
2018-04-10T23:14:36.565Z,99982.45
2018-04-10T23:17:04.954Z,99987.22
2018-04-10T23:19:33.375Z,99986.78
2018-04-10T23:22:01.811Z,99983.75
2018-04-10T23:24:30.180Z,99988.52
2018-04-10T23:26:58.580Z,99982.44
2018-04-10T23:29:26.967Z,99984.62
2018-04-10T23:31:55.349Z,99978.52
2018-04-10T23:34:23.731Z,99982.86
2018-04-10T23:36:52.129Z,99983.70
2018-04-10T23:39:20.527Z,99973.74
2018-04-10T23:41:48.927Z,99982.83
2018-04-10T23:44:18.069Z,99978.09
2018-04-10T23:46:46.456Z,99976.33
2018-04-10T23:49:14.874Z,99981.98
2018-04-10T23:51:43.266Z,99987.62
2018-04-10T23:54:12.425Z,99990.21
2018-04-10T23:56:41.586Z,99993.68
2018-04-10T23:59:09.992Z,99991.52
